sensor_id;sensor_type;location;lat;lon;timestamp;pressure;altitude;pressure_sealevel;temperature;humidity
76050;BME280;64967;50.234;19.224;2023-04-01T00:00:01;96716.13;;;8.51;84.03
76050;BME280;64967;50.234;19.224;2023-04-01T00:02:28;96707.00;;;8.52;84.48
76050;BME280;64967;50.234;19.224;2023-04-01T00:05:02;96709.47;;;8.54;83.96
76050;BME280;64967;50.234;19.224;2023-04-01T00:07:49;96690.84;;;8.52;84.48
76050;BME280;64967;50.234;19.224;2023-04-01T00:10:31;96694.13;;;8.54;84.37
76050;BME280;64967;50.234;19.224;2023-04-01T00:13:34;96708.16;;;8.56;84.03
76050;BME280;64967;50.234;19.224;2023-04-01T00:16:18;96697.41;;;8.56;84.36
76050;BME280;64967;50.234;19.224;2023-04-01T00:19:06;96691.19;;;8.56;84.28
76050;BME280;64967;50.234;19.224;2023-04-01T00:21:43;96694.69;;;8.56;83.97
76050;BME280;64967;50.234;19.224;2023-04-01T00:24:10;96700.34;;;8.55;84.35
76050;BME280;64967;50.234;19.224;2023-04-01T00:26:37;96691.44;;;8.54;84.43
76050;BME280;64967;50.234;19.224;2023-04-01T00:29:04;96686.75;;;8.49;84.72
76050;BME280;64967;50.234;19.224;2023-04-01T00:31:32;96688.84;;;8.47;84.17
76050;BME280;64967;50.234;19.224;2023-04-01T00:33:59;96679.59;;;8.43;84.06
76050;BME280;64967;50.234;19.224;2023-04-01T00:36:26;96692.72;;;8.40;84.25
76050;BME280;64967;50.234;19.224;2023-04-01T00:38:53;96688.25;;;8.34;85.01
76050;BME280;64967;50.234;19.224;2023-04-01T00:41:20;96701.56;;;8.29;85.14
76050;BME280;64967;50.234;19.224;2023-04-01T00:43:50;96689.06;;;8.23;84.57
76050;BME280;64967;50.234;19.224;2023-04-01T00:46:18;96689.75;;;8.18;85.24
76050;BME280;64967;50.234;19.224;2023-04-01T00:48:48;96682.81;;;8.11;85.94
76050;BME280;64967;50.234;19.224;2023-04-01T00:51:21;96689.16;;;8.04;86.30
76050;BME280;64967;50.234;19.224;2023-04-01T00:53:53;96691.25;;;8.02;86.51
76050;BME280;64967;50.234;19.224;2023-04-01T00:56:32;96690.53;;;7.95;86.24
76050;BME280;64967;50.234;19.224;2023-04-01T00:59:14;96697.56;;;7.96;86.99
76050;BME280;64967;50.234;19.224;2023-04-01T01:01:42;96693.72;;;7.92;86.96
76050;BME280;64967;50.234;19.224;2023-04-01T01:10:03;96693.44;;;7.82;87.78
76050;BME280;64967;50.234;19.224;2023-04-01T01:13:08;96695.53;;;7.80;87.90
76050;BME280;64967;50.234;19.224;2023-04-01T01:16:06;96688.75;;;7.78;88.03
76050;BME280;64967;50.234;19.224;2023-04-01T01:36:11;96694.75;;;7.91;87.85
76050;BME280;64967;50.234;19.224;2023-04-01T01:38:40;96684.56;;;7.93;87.81
76050;BME280;64967;50.234;19.224;2023-04-01T01:41:08;96689.03;;;7.99;87.67
76050;BME280;64967;50.234;19.224;2023-04-01T01:43:40;96690.41;;;8.02;87.69
76050;BME280;64967;50.234;19.224;2023-04-01T01:46:12;96680.03;;;8.05;87.15
76050;BME280;64967;50.234;19.224;2023-04-01T01:48:42;96654.47;;;7.85;87.28
76050;BME280;64967;50.234;19.224;2023-04-01T01:51:10;96682.72;;;8.05;87.51
76050;BME280;64967;50.234;19.224;2023-04-01T01:53:37;96682.72;;;8.05;88.17
76050;BME280;64967;50.234;19.224;2023-04-01T01:56:04;96673.84;;;8.05;87.40
76050;BME280;64967;50.234;19.224;2023-04-01T01:58:39;96692.41;;;8.06;87.83
76050;BME280;64967;50.234;19.224;2023-04-01T02:01:14;96688.34;;;8.04;88.04
76050;BME280;64967;50.234;19.224;2023-04-01T02:03:44;96683.41;;;8.01;87.56
76050;BME280;64967;50.234;19.224;2023-04-01T02:06:16;96693.81;;;7.97;87.94
76050;BME280;64967;50.234;19.224;2023-04-01T02:08:49;96693.00;;;7.97;87.49
76050;BME280;64967;50.234;19.224;2023-04-01T02:11:26;96685.16;;;7.95;88.17
76050;BME280;64967;50.234;19.224;2023-04-01T02:14:01;96695.94;;;7.95;87.96
76050;BME280;64967;50.234;19.224;2023-04-01T02:16:40;96701.53;;;7.94;88.03
76050;BME280;64967;50.234;19.224;2023-04-01T02:19:10;96701.53;;;7.94;88.52
76050;BME280;64967;50.234;19.224;2023-04-01T02:21:39;96707.94;;;7.93;88.21
76050;BME280;64967;50.234;19.224;2023-04-01T02:24:12;96710.41;;;7.94;88.13
76050;BME280;64967;50.234;19.224;2023-04-01T02:26:41;96678.69;;;7.73;88.51
76050;BME280;64967;50.234;19.224;2023-04-01T02:29:11;96715.81;;;7.94;88.73
76050;BME280;64967;50.234;19.224;2023-04-01T02:31:40;96717.44;;;7.95;88.43
76050;BME280;64967;50.234;19.224;2023-04-01T02:34:08;96723.66;;;7.96;88.36
76050;BME280;64967;50.234;19.224;2023-04-01T02:36:36;96709.38;;;7.95;88.37
76050;BME280;64967;50.234;19.224;2023-04-01T02:39:05;96714.75;;;7.95;88.22
76050;BME280;64967;50.234;19.224;2023-04-01T02:41:38;96711.25;;;7.95;88.38
76050;BME280;64967;50.234;19.224;2023-04-01T02:44:06;96715.81;;;7.94;88.45
76050;BME280;64967;50.234;19.224;2023-04-01T02:46:33;96721.19;;;7.94;88.50
76050;BME280;64967;50.234;19.224;2023-04-01T02:49:01;96724.91;;;7.93;88.38
76050;BME280;64967;50.234;19.224;2023-04-01T02:51:28;96729.72;;;7.91;88.10
76050;BME280;64967;50.234;19.224;2023-04-01T02:53:57;96738.25;;;7.88;88.16
76050;BME280;64967;50.234;19.224;2023-04-01T02:56:24;96732.84;;;7.88;89.17
76050;BME280;64967;50.234;19.224;2023-04-01T02:58:53;96734.97;;;7.86;89.04
76050;BME280;64967;50.234;19.224;2023-04-01T03:01:21;96736.03;;;7.85;89.01
76050;BME280;64967;50.234;19.224;2023-04-01T03:03:48;96733.31;;;7.85;89.43
76050;BME280;64967;50.234;19.224;2023-04-01T03:06:17;96737.06;;;7.84;88.92
76050;BME280;64967;50.234;19.224;2023-04-01T03:08:44;96734.63;;;7.83;89.12
76050;BME280;64967;50.234;19.224;2023-04-01T03:11:11;96739.41;;;7.81;89.03
76050;BME280;64967;50.234;19.224;2023-04-01T03:13:38;96748.91;;;7.83;89.55
76050;BME280;64967;50.234;19.224;2023-04-01T03:16:06;96733.78;;;7.82;89.20
76050;BME280;64967;50.234;19.224;2023-04-01T03:18:33;96735.66;;;7.82;89.57
76050;BME280;64967;50.234;19.224;2023-04-01T03:21:20;96733.78;;;7.82;89.14
76050;BME280;64967;50.234;19.224;2023-04-01T03:23:47;96730.28;;;7.82;89.87
76050;BME280;64967;50.234;19.224;2023-04-01T03:26:14;96731.09;;;7.82;89.00
76050;BME280;64967;50.234;19.224;2023-04-01T03:28:42;96732.16;;;7.81;89.27
76050;BME280;64967;50.234;19.224;2023-04-01T03:31:10;96732.16;;;7.81;89.88
76050;BME280;64967;50.234;19.224;2023-04-01T03:33:37;96744.56;;;7.82;89.31
76050;BME280;64967;50.234;19.224;2023-04-01T03:36:04;96739.19;;;7.82;89.10
76050;BME280;64967;50.234;19.224;2023-04-01T03:38:34;96741.88;;;7.82;89.22
76050;BME280;64967;50.234;19.224;2023-04-01T03:41:01;96732.16;;;7.81;89.85
76050;BME280;64967;50.234;19.224;2023-04-01T03:43:28;96731.31;;;7.81;89.84
76050;BME280;64967;50.234;19.224;2023-04-01T03:45:55;96705.53;;;7.61;90.40
76050;BME280;64967;50.234;19.224;2023-04-01T03:48:25;96724.75;;;7.77;91.00
76050;BME280;64967;50.234;19.224;2023-04-01T03:50:52;96726.84;;;7.75;91.08
76050;BME280;64967;50.234;19.224;2023-04-01T03:53:19;96734.34;;;7.73;91.41
76050;BME280;64967;50.234;19.224;2023-04-01T03:55:46;96734.00;;;7.69;91.06
76050;BME280;64967;50.234;19.224;2023-04-01T03:58:13;96728.59;;;7.69;91.23
76050;BME280;64967;50.234;19.224;2023-04-01T04:00:40;96732.34;;;7.68;91.53
76050;BME280;64967;50.234;19.224;2023-04-01T04:03:07;96732.34;;;7.68;91.42
76050;BME280;64967;50.234;19.224;2023-04-01T04:05:34;96736.53;;;7.64;91.41
76050;BME280;64967;50.234;19.224;2023-04-01T04:08:01;96740.88;;;7.65;91.61
76050;BME280;64967;50.234;19.224;2023-04-01T04:10:29;96738.19;;;7.65;91.85
76050;BME280;64967;50.234;19.224;2023-04-01T04:12:56;96736.53;;;7.64;91.58
76050;BME280;64967;50.234;19.224;2023-04-01T04:15:23;96733.84;;;7.64;91.76
76050;BME280;64967;50.234;19.224;2023-04-01T04:17:50;96739.81;;;7.66;91.85
76050;BME280;64967;50.234;19.224;2023-04-01T04:20:17;96738.75;;;7.67;91.62
76050;BME280;64967;50.234;19.224;2023-04-01T04:22:45;96735.84;;;7.69;91.87
76050;BME280;64967;50.234;19.224;2023-04-01T04:25:12;96738.28;;;7.70;91.76
76050;BME280;64967;50.234;19.224;2023-04-01T04:27:39;96727.53;;;7.70;91.66
76050;BME280;64967;50.234;19.224;2023-04-01T04:30:07;96728.13;;;7.72;91.48
76050;BME280;64967;50.234;19.224;2023-04-01T04:32:35;96696.13;;;7.52;91.71
76050;BME280;64967;50.234;19.224;2023-04-01T04:35:02;96734.69;;;7.76;90.97
76050;BME280;64967;50.234;19.224;2023-04-01T04:37:29;96729.53;;;7.75;90.85
76050;BME280;64967;50.234;19.224;2023-04-01T04:39:56;96730.50;;;7.80;91.17
76050;BME280;64967;50.234;19.224;2023-04-01T04:42:23;96729.69;;;7.80;90.74
76050;BME280;64967;50.234;19.224;2023-04-01T04:44:50;96732.16;;;7.81;91.26
76050;BME280;64967;50.234;19.224;2023-04-01T04:47:17;96731.09;;;7.82;91.00
76050;BME280;64967;50.234;19.224;2023-04-01T04:49:45;96723.38;;;7.86;90.59
76050;BME280;64967;50.234;19.224;2023-04-01T04:52:12;96732.84;;;7.88;90.47
76050;BME280;64967;50.234;19.224;2023-04-01T04:54:39;96727.88;;;7.92;90.89
76050;BME280;64967;50.234;19.224;2023-04-01T04:57:06;96731.13;;;7.94;91.27
76050;BME280;64967;50.234;19.224;2023-04-01T04:59:33;96734.78;;;7.99;90.95
76050;BME280;64967;50.234;19.224;2023-04-01T05:02:00;96731.88;;;8.01;90.44
76050;BME280;64967;50.234;19.224;2023-04-01T05:04:27;96732.56;;;8.08;90.23
76050;BME280;64967;50.234;19.224;2023-04-01T05:06:54;96739.72;;;8.14;90.21
76050;BME280;64967;50.234;19.224;2023-04-01T05:09:21;96735.53;;;8.18;89.90
76050;BME280;64967;50.234;19.224;2023-04-01T05:11:48;96734.22;;;8.21;90.16
76050;BME280;64967;50.234;19.224;2023-04-01T05:14:16;96736.47;;;8.24;89.69
76050;BME280;64967;50.234;19.224;2023-04-01T05:16:43;96740.94;;;8.30;89.08
76050;BME280;64967;50.234;19.224;2023-04-01T05:19:10;96737.56;;;8.34;89.37
76050;BME280;64967;50.234;19.224;2023-04-01T05:21:37;96745.53;;;8.41;89.42
76050;BME280;64967;50.234;19.224;2023-04-01T05:24:08;96729.94;;;8.43;88.49
76050;BME280;64967;50.234;19.224;2023-04-01T05:26:35;96738.75;;;8.50;88.13
76050;BME280;64967;50.234;19.224;2023-04-01T05:29:04;96732.88;;;8.53;87.90
76050;BME280;64967;50.234;19.224;2023-04-01T05:31:31;96745.44;;;8.59;88.30
76050;BME280;64967;50.234;19.224;2023-04-01T05:33:58;96733.47;;;8.67;87.60
76050;BME280;64967;50.234;19.224;2023-04-01T05:36:25;96746.38;;;8.76;87.13
76050;BME280;64967;50.234;19.224;2023-04-01T05:38:55;96750.13;;;8.87;86.76
76050;BME280;64967;50.234;19.224;2023-04-01T05:41:22;96742.25;;;8.97;87.04
76050;BME280;64967;50.234;19.224;2023-04-01T05:43:49;96741.66;;;9.07;86.93
76050;BME280;64967;50.234;19.224;2023-04-01T05:46:16;96748.09;;;9.17;86.02
76050;BME280;64967;50.234;19.224;2023-04-01T05:48:43;96744.31;;;9.30;85.35
76050;BME280;64967;50.234;19.224;2023-04-01T05:51:14;96742.88;;;9.39;84.89
76050;BME280;64967;50.234;19.224;2023-04-01T05:53:42;96742.59;;;9.52;84.98
76050;BME280;64967;50.234;19.224;2023-04-01T05:56:09;96742.69;;;9.57;83.92
76050;BME280;64967;50.234;19.224;2023-04-01T05:58:37;96747.59;;;9.60;83.61
76050;BME280;64967;50.234;19.224;2023-04-01T06:01:07;96742.91;;;9.67;83.50
76050;BME280;64967;50.234;19.224;2023-04-01T06:03:42;96745.69;;;9.72;82.77
76050;BME280;64967;50.234;19.224;2023-04-01T06:06:26;96751.16;;;9.77;82.71
76050;BME280;64967;50.234;19.224;2023-04-01T06:08:56;96752.91;;;9.83;82.74
76050;BME280;64967;50.234;19.224;2023-04-01T06:17:26;96740.09;;;9.62;82.46
76050;BME280;64967;50.234;19.224;2023-04-01T06:19:59;96765.66;;;9.71;82.97
76050;BME280;64967;50.234;19.224;2023-04-01T06:22:54;96760.16;;;9.66;82.88
76050;BME280;64967;50.234;19.224;2023-04-01T06:25:55;96760.16;;;9.66;83.22
76050;BME280;64967;50.234;19.224;2023-04-01T06:34:42;96771.03;;;9.71;83.31
76050;BME280;64967;50.234;19.224;2023-04-01T06:37:38;96770.56;;;9.74;82.99
76050;BME280;64967;50.234;19.224;2023-04-01T06:40:41;96768.34;;;9.71;82.03
76050;BME280;64967;50.234;19.224;2023-04-01T06:46:44;96767.28;;;9.72;82.47
76050;BME280;64967;50.234;19.224;2023-04-01T06:49:33;96763.66;;;9.67;82.65
76050;BME280;64967;50.234;19.224;2023-04-01T06:52:21;96759.19;;;9.72;82.34
76050;BME280;64967;50.234;19.224;2023-04-01T06:54:57;96764.66;;;9.77;82.78
76050;BME280;64967;50.234;19.224;2023-04-01T06:57:32;96763.22;;;9.86;81.82
76050;BME280;64967;50.234;19.224;2023-04-01T07:00:04;96760.16;;;9.95;82.25
76050;BME280;64967;50.234;19.224;2023-04-01T07:02:42;96768.41;;;10.05;81.15
76050;BME280;64967;50.234;19.224;2023-04-01T07:05:11;96746.91;;;10.10;80.55
76050;BME280;64967;50.234;19.224;2023-04-01T07:07:45;96771.72;;;10.35;80.43
76050;BME280;64967;50.234;19.224;2023-04-01T07:10:25;96771.31;;;10.43;79.68
76050;BME280;64967;50.234;19.224;2023-04-01T07:12:58;96765.06;;;10.43;79.39
76050;BME280;64967;50.234;19.224;2023-04-01T07:15:37;96770.06;;;10.51;80.60
76050;BME280;64967;50.234;19.224;2023-04-01T07:18:15;96771.53;;;10.58;80.33
76050;BME280;64967;50.234;19.224;2023-04-01T07:20:44;96765.38;;;10.63;79.25
76050;BME280;64967;50.234;19.224;2023-04-01T07:23:25;96775.47;;;10.67;78.85
76050;BME280;64967;50.234;19.224;2023-04-01T07:25:58;96772.28;;;10.70;79.55
76050;BME280;64967;50.234;19.224;2023-04-01T07:28:30;96775.16;;;10.81;78.71
76050;BME280;64967;50.234;19.224;2023-04-01T07:36:32;96776.81;;;11.03;79.31
76050;BME280;64967;50.234;19.224;2023-04-01T07:39:16;96781.59;;;10.96;79.06
76050;BME280;64967;50.234;19.224;2023-04-01T07:45:04;96788.16;;;10.84;80.43
76050;BME280;64967;50.234;19.224;2023-04-01T07:56:09;96789.16;;;10.78;80.77
76050;BME280;64967;50.234;19.224;2023-04-01T07:58:41;96792.09;;;10.93;80.77
76050;BME280;64967;50.234;19.224;2023-04-01T08:01:20;96796.75;;;10.97;80.93
76050;BME280;64967;50.234;19.224;2023-04-01T08:04:33;96790.53;;;10.63;81.22
76050;BME280;64967;50.234;19.224;2023-04-01T08:07:19;96794.06;;;10.47;81.68
76050;BME280;64967;50.234;19.224;2023-04-01T08:10:16;96799.88;;;10.56;81.73
76050;BME280;64967;50.234;19.224;2023-04-01T08:15:32;96810.78;;;10.44;83.15
76050;BME280;64967;50.234;19.224;2023-04-01T08:18:15;96813.28;;;10.34;83.94
76050;BME280;64967;50.234;19.224;2023-04-01T08:21:00;96813.34;;;10.22;85.07
76050;BME280;64967;50.234;19.224;2023-04-01T08:23:30;96825.75;;;10.35;84.58
76050;BME280;64967;50.234;19.224;2023-04-01T08:26:12;96817.13;;;10.38;84.87
76050;BME280;64967;50.234;19.224;2023-04-01T08:29:06;96814.88;;;10.18;84.90
76050;BME280;64967;50.234;19.224;2023-04-01T08:31:55;96816.94;;;10.28;84.87
76050;BME280;64967;50.234;19.224;2023-04-01T08:34:30;96813.84;;;10.36;84.05
76050;BME280;64967;50.234;19.224;2023-04-01T08:37:05;96817.88;;;10.50;83.73
76050;BME280;64967;50.234;19.224;2023-04-01T08:39:42;96807.34;;;10.65;83.52
76050;BME280;64967;50.234;19.224;2023-04-01T08:58:37;96803.13;;;11.08;79.94
76050;BME280;64967;50.234;19.224;2023-04-01T09:20:45;96814.63;;;10.65;84.57
76050;BME280;64967;50.234;19.224;2023-04-01T09:27:04;96785.22;;;10.68;85.40
76050;BME280;64967;50.234;19.224;2023-04-01T09:40:35;96813.84;;;11.75;82.43
76050;BME280;64967;50.234;19.224;2023-04-01T09:46:26;96806.09;;;11.83;78.31
76050;BME280;64967;50.234;19.224;2023-04-01T09:54:20;96812.44;;;11.34;78.36
76050;BME280;64967;50.234;19.224;2023-04-01T09:57:22;96812.81;;;11.21;79.61
76050;BME280;64967;50.234;19.224;2023-04-01T10:17:19;96825.28;;;11.82;85.02
76050;BME280;64967;50.234;19.224;2023-04-01T10:20:28;96820.38;;;12.27;80.37
76050;BME280;64967;50.234;19.224;2023-04-01T10:56:51;96824.28;;;11.11;81.48
76050;BME280;64967;50.234;19.224;2023-04-01T11:03:19;96823.72;;;10.92;85.70
76050;BME280;64967;50.234;19.224;2023-04-01T11:16:53;96827.63;;;11.18;88.83
76050;BME280;64967;50.234;19.224;2023-04-01T11:30:26;96824.28;;;11.71;81.16
76050;BME280;64967;50.234;19.224;2023-04-01T11:33:34;96825.34;;;11.87;81.38
76050;BME280;64967;50.234;19.224;2023-04-01T11:36:03;96823.38;;;11.60;82.23
76050;BME280;64967;50.234;19.224;2023-04-01T11:41:34;96820.25;;;11.90;83.10
76050;BME280;64967;50.234;19.224;2023-04-01T11:44:30;96817.63;;;12.22;81.23
76050;BME280;64967;50.234;19.224;2023-04-01T11:58:10;96808.47;;;13.19;73.83
76050;BME280;64967;50.234;19.224;2023-04-01T12:01:10;96814.22;;;12.95;73.02
76050;BME280;64967;50.234;19.224;2023-04-01T12:09:29;96815.41;;;12.73;71.06
76050;BME280;64967;50.234;19.224;2023-04-01T12:36:52;96841.19;;;11.01;82.67
76050;BME280;64967;50.234;19.224;2023-04-01T12:39:29;96842.47;;;10.99;84.29
76050;BME280;64967;50.234;19.224;2023-04-01T12:44:37;96841.69;;;10.98;85.75
76050;BME280;64967;50.234;19.224;2023-04-01T12:55:12;96838.53;;;11.23;87.05
76050;BME280;64967;50.234;19.224;2023-04-01T12:57:56;96833.72;;;11.47;86.52
76050;BME280;64967;50.234;19.224;2023-04-01T13:00:40;96838.03;;;11.64;85.70
76050;BME280;64967;50.234;19.224;2023-04-01T13:06:02;96838.75;;;11.77;85.45
76050;BME280;64967;50.234;19.224;2023-04-01T13:20:46;96853.63;;;11.96;82.80
76050;BME280;64967;50.234;19.224;2023-04-01T13:23:28;96853.63;;;11.96;82.35
76050;BME280;64967;50.234;19.224;2023-04-01T13:26:05;96855.88;;;12.04;81.58
76050;BME280;64967;50.234;19.224;2023-04-01T13:31:38;96850.13;;;12.22;82.01
76050;BME280;64967;50.234;19.224;2023-04-01T13:35:18;96851.50;;;12.25;81.59
76050;BME280;64967;50.234;19.224;2023-04-01T13:51:40;96857.03;;;12.62;78.45
76050;BME280;64967;50.234;19.224;2023-04-01T13:54:22;96858.16;;;12.66;79.19
76050;BME280;64967;50.234;19.224;2023-04-01T14:00:19;96863.94;;;12.47;74.46
76050;BME280;64967;50.234;19.224;2023-04-01T14:17:03;96899.84;;;10.39;87.22
76050;BME280;64967;50.234;19.224;2023-04-01T14:19:50;96904.44;;;10.27;88.72
76050;BME280;64967;50.234;19.224;2023-04-01T14:28:25;96901.31;;;10.07;90.94
76050;BME280;64967;50.234;19.224;2023-04-01T14:45:06;96896.00;;;10.52;91.23
76050;BME280;64967;50.234;19.224;2023-04-01T14:47:53;96899.56;;;10.69;90.75
76050;BME280;64967;50.234;19.224;2023-04-01T14:50:23;96908.50;;;10.69;91.58
76050;BME280;64967;50.234;19.224;2023-04-01T14:58:18;96907.06;;;10.22;87.24
76050;BME280;64967;50.234;19.224;2023-04-01T15:03:40;96915.09;;;9.94;88.13
76050;BME280;64967;50.234;19.224;2023-04-01T15:07:09;96916.66;;;9.66;90.53
76050;BME280;64967;50.234;19.224;2023-04-01T15:26:31;96939.19;;;9.72;96.26
76050;BME280;64967;50.234;19.224;2023-04-01T15:29:11;96925.00;;;9.76;94.93
76050;BME280;64967;50.234;19.224;2023-04-01T15:34:35;96937.53;;;9.94;96.37
76050;BME280;64967;50.234;19.224;2023-04-01T15:43:45;96941.03;;;9.95;94.26
76050;BME280;64967;50.234;19.224;2023-04-01T15:45:56;96953.50;;;9.84;94.64
76050;BME280;64967;50.234;19.224;2023-04-01T15:48:44;96919.59;;;9.53;96.51
76050;BME280;64967;50.234;19.224;2023-04-01T15:54:27;96950.66;;;9.91;96.08
76050;BME280;64967;50.234;19.224;2023-04-01T15:59:57;96955.38;;;9.72;97.33
76050;BME280;64967;50.234;19.224;2023-04-01T16:13:51;96961.47;;;9.79;93.59
76050;BME280;64967;50.234;19.224;2023-04-01T16:22:26;96961.72;;;9.66;93.34
76050;BME280;64967;50.234;19.224;2023-04-01T16:28:02;96959.38;;;9.58;92.54
76050;BME280;64967;50.234;19.224;2023-04-01T16:30:37;96970.75;;;9.48;92.39
76050;BME280;64967;50.234;19.224;2023-04-01T16:33:17;96976.63;;;9.45;92.66
76050;BME280;64967;50.234;19.224;2023-04-01T16:36:01;96981.75;;;9.35;94.01
76050;BME280;64967;50.234;19.224;2023-04-01T16:41:24;96994.56;;;9.39;93.60
76050;BME280;64967;50.234;19.224;2023-04-01T16:46:41;97001.94;;;9.44;94.17
76050;BME280;64967;50.234;19.224;2023-04-01T16:49:27;97010.47;;;9.29;94.04
76050;BME280;64967;50.234;19.224;2023-04-01T16:52:14;97002.25;;;9.24;93.95
76050;BME280;64967;50.234;19.224;2023-04-01T16:54:55;97001.00;;;9.27;94.59
76050;BME280;64967;50.234;19.224;2023-04-01T17:02:54;97032.66;;;9.43;93.77
76050;BME280;64967;50.234;19.224;2023-04-01T17:11:19;97037.00;;;9.44;94.72
76050;BME280;64967;50.234;19.224;2023-04-01T17:14:18;97038.66;;;9.45;94.41
76050;BME280;64967;50.234;19.224;2023-04-01T17:20:11;97046.75;;;9.45;94.72
76050;BME280;64967;50.234;19.224;2023-04-01T17:23:05;97050.50;;;9.44;94.99
76050;BME280;64967;50.234;19.224;2023-04-01T17:39:34;97070.91;;;9.40;94.48
76050;BME280;64967;50.234;19.224;2023-04-01T17:50:58;97079.63;;;9.24;94.40
76050;BME280;64967;50.234;19.224;2023-04-01T17:53:36;97075.69;;;9.26;94.04
76050;BME280;64967;50.234;19.224;2023-04-01T17:56:19;97080.59;;;9.29;94.49
76050;BME280;64967;50.234;19.224;2023-04-01T18:01:46;97090.34;;;9.30;94.25
76050;BME280;64967;50.234;19.224;2023-04-01T18:04:40;97091.03;;;9.26;94.93
76050;BME280;64967;50.234;19.224;2023-04-01T18:07:35;97093.13;;;9.24;94.90
76050;BME280;64967;50.234;19.224;2023-04-01T18:10:17;97099.34;;;9.24;95.13
76050;BME280;64967;50.234;19.224;2023-04-01T18:13:20;97103.19;;;9.17;95.66
76050;BME280;64967;50.234;19.224;2023-04-01T18:16:10;97113.00;;;9.11;94.91
76050;BME280;64967;50.234;19.224;2023-04-01T18:21:43;97117.81;;;9.09;95.98
76050;BME280;64967;50.234;19.224;2023-04-01T18:24:27;97113.13;;;9.05;96.71
76050;BME280;64967;50.234;19.224;2023-04-01T18:27:01;97126.66;;;8.98;97.49
76050;BME280;64967;50.234;19.224;2023-04-01T18:29:51;97125.13;;;8.90;98.40
76050;BME280;64967;50.234;19.224;2023-04-01T18:35:16;97125.53;;;8.87;98.79
76050;BME280;64967;50.234;19.224;2023-04-01T18:38:00;97136.78;;;8.84;99.45
76050;BME280;64967;50.234;19.224;2023-04-01T18:40:53;97141.72;;;8.87;100.00
76050;BME280;64967;50.234;19.224;2023-04-01T18:43:39;97141.06;;;8.74;100.00
76050;BME280;64967;50.234;19.224;2023-04-01T18:46:45;97153.84;;;8.78;100.00
76050;BME280;64967;50.234;19.224;2023-04-01T18:52:34;97149.69;;;8.64;100.00
76050;BME280;64967;50.234;19.224;2023-04-01T18:57:53;97153.56;;;8.50;100.00
76050;BME280;64967;50.234;19.224;2023-04-01T19:00:34;97151.00;;;8.37;100.00
76050;BME280;64967;50.234;19.224;2023-04-01T19:03:28;97161.31;;;8.40;100.00
76050;BME280;64967;50.234;19.224;2023-04-01T19:06:06;97157.13;;;8.44;100.00
76050;BME280;64967;50.234;19.224;2023-04-01T19:08:40;97164.63;;;8.42;100.00
76050;BME280;64967;50.234;19.224;2023-04-01T19:11:49;97157.59;;;8.41;100.00
76050;BME280;64967;50.234;19.224;2023-04-01T19:15:20;97165.50;;;8.36;100.00
76050;BME280;64967;50.234;19.224;2023-04-01T19:17:53;97174.56;;;8.41;100.00
76050;BME280;64967;50.234;19.224;2023-04-01T19:20:37;97174.41;;;8.36;100.00
76050;BME280;64967;50.234;19.224;2023-04-01T19:26:00;97179.22;;;8.28;100.00
76050;BME280;64967;50.234;19.224;2023-04-01T19:34:09;97189.91;;;8.41;100.00
76050;BME280;64967;50.234;19.224;2023-04-01T19:53:29;97187.63;;;8.13;100.00
76050;BME280;64967;50.234;19.224;2023-04-01T19:56:05;97200.59;;;8.23;100.00
76050;BME280;64967;50.234;19.224;2023-04-01T19:58:45;97216.97;;;8.21;100.00
76050;BME280;64967;50.234;19.224;2023-04-01T20:02:14;97205.22;;;8.16;100.00
76050;BME280;64967;50.234;19.224;2023-04-01T20:04:48;97214.91;;;8.23;100.00
76050;BME280;64967;50.234;19.224;2023-04-01T20:07:44;97218.25;;;8.19;100.00
76050;BME280;64967;50.234;19.224;2023-04-01T20:10:20;97207.91;;;8.16;100.00
76050;BME280;64967;50.234;19.224;2023-04-01T20:15:59;97142.44;;;7.72;99.95
76050;BME280;64967;50.234;19.224;2023-04-01T20:18:39;97214.50;;;8.20;100.00
76050;BME280;64967;50.234;19.224;2023-04-01T20:23:52;97227.19;;;8.13;100.00
76050;BME280;64967;50.234;19.224;2023-04-01T20:26:26;97227.47;;;8.04;100.00
76050;BME280;64967;50.234;19.224;2023-04-01T20:29:15;97226.44;;;8.05;100.00
76050;BME280;64967;50.234;19.224;2023-04-01T20:32:43;97225.59;;;8.05;100.00
76050;BME280;64967;50.234;19.224;2023-04-01T20:34:59;97225.34;;;8.13;100.00
76050;BME280;64967;50.234;19.224;2023-04-01T20:43:23;97231.41;;;8.02;100.00
76050;BME280;64967;50.234;19.224;2023-04-01T20:46:07;97244.03;;;8.01;100.00
76050;BME280;64967;50.234;19.224;2023-04-01T20:49:03;97244.00;;;8.08;100.00
76050;BME280;64967;50.234;19.224;2023-04-01T20:51:47;97244.22;;;8.06;100.00
76050;BME280;64967;50.234;19.224;2023-04-01T20:57:21;97249.38;;;8.08;100.00
76050;BME280;64967;50.234;19.224;2023-04-01T21:00:02;97241.69;;;8.12;100.00
76050;BME280;64967;50.234;19.224;2023-04-01T21:11:33;97255.50;;;8.22;100.00
76050;BME280;64967;50.234;19.224;2023-04-01T21:14:28;97256.78;;;8.19;100.00
76050;BME280;64967;50.234;19.224;2023-04-01T21:25:28;97263.53;;;8.28;100.00
76050;BME280;64967;50.234;19.224;2023-04-01T21:30:39;97271.13;;;8.38;100.00
76050;BME280;64967;50.234;19.224;2023-04-01T21:33:47;97272.84;;;8.32;100.00
76050;BME280;64967;50.234;19.224;2023-04-01T21:39:26;97277.81;;;8.29;100.00
76050;BME280;64967;50.234;19.224;2023-04-01T21:42:19;97284.66;;;8.25;100.00
76050;BME280;64967;50.234;19.224;2023-04-01T21:50:39;97286.97;;;8.21;100.00
76050;BME280;64967;50.234;19.224;2023-04-01T22:01:30;97286.25;;;8.39;100.00
76050;BME280;64967;50.234;19.224;2023-04-01T22:06:59;97293.47;;;8.45;100.00
76050;BME280;64967;50.234;19.224;2023-04-01T22:09:35;97288.09;;;8.45;100.00
76050;BME280;64967;50.234;19.224;2023-04-01T22:12:22;97287.63;;;8.48;100.00
76050;BME280;64967;50.234;19.224;2023-04-01T22:23:46;97301.75;;;8.43;100.00
76050;BME280;64967;50.234;19.224;2023-04-01T22:26:19;97294.34;;;8.39;100.00
76050;BME280;64967;50.234;19.224;2023-04-01T22:32:45;97297.31;;;8.31;100.00